createdAt,value
2023-10-05T00:00:21.266Z,58.60
2023-10-05T00:05:25.224Z,58.50
2023-10-05T00:10:31.202Z,58.10
2023-10-05T00:15:37.711Z,58.30
2023-10-05T00:20:42.428Z,58.20
2023-10-05T00:25:47.283Z,57.90
2023-10-05T00:30:51.906Z,58.00
2023-10-05T00:35:55.481Z,58.00
2023-10-05T00:41:09.553Z,58.10
2023-10-05T00:46:13.794Z,58.00
2023-10-05T00:51:24.876Z,57.60
2023-10-05T00:56:35.155Z,57.70
2023-10-05T01:01:59.382Z,57.90
2023-10-05T01:07:19.344Z,58.70
2023-10-05T01:12:38.101Z,58.20
2023-10-05T01:17:41.744Z,58.20
2023-10-05T01:22:46.318Z,58.20
2023-10-05T01:27:52.582Z,58.20
2023-10-05T01:32:56.314Z,58.50
2023-10-05T01:38:01.043Z,58.30
2023-10-05T01:43:06.774Z,57.80
2023-10-05T01:48:14.029Z,58.10
2023-10-05T01:53:18.529Z,57.60
2023-10-05T01:58:27.141Z,57.10
2023-10-05T02:03:30.665Z,57.20
2023-10-05T02:08:37.091Z,57.20
2023-10-05T02:13:42.369Z,57.60
2023-10-05T02:18:46.041Z,58.20
2023-10-05T02:23:52.898Z,57.90
2023-10-05T02:28:58.175Z,57.50
2023-10-05T02:34:02.393Z,58.20
2023-10-05T02:39:10.107Z,58.10
2023-10-05T02:44:24.581Z,57.40
2023-10-05T02:49:28.311Z,58.40
2023-10-05T02:54:32.414Z,58.50
2023-10-05T02:59:37.288Z,58.80
2023-10-05T03:04:57.275Z,59.20
2023-10-05T03:10:02.174Z,59.30
2023-10-05T03:15:15.340Z,58.70
2023-10-05T03:20:23.362Z,59.40
2023-10-05T03:25:27.575Z,59.40
2023-10-05T03:30:36.765Z,59.10
2023-10-05T03:35:46.437Z,59.20
2023-10-05T03:40:50.510Z,59.10
2023-10-05T03:45:56.669Z,59.10
2023-10-05T03:51:01.353Z,58.40
2023-10-05T03:56:05.048Z,58.60
2023-10-05T04:01:13.158Z,58.50
2023-10-05T04:06:21.626Z,58.80
2023-10-05T04:11:27.753Z,58.00
2023-10-05T04:16:35.657Z,57.70
2023-10-05T04:21:41.631Z,58.00
2023-10-05T04:26:47.247Z,57.60
2023-10-05T04:31:53.343Z,58.30
2023-10-05T04:36:56.942Z,57.80
2023-10-05T04:42:07.311Z,58.60
2023-10-05T04:47:12.112Z,58.90
2023-10-05T04:52:20.845Z,59.60
2023-10-05T04:57:36.446Z,59.00
2023-10-05T05:03:06.502Z,59.10
2023-10-05T05:08:10.949Z,58.90
2023-10-05T05:13:14.607Z,58.60
2023-10-05T05:18:20.626Z,58.30
2023-10-05T05:23:24.140Z,59.20
2023-10-05T05:28:27.814Z,59.50
2023-10-05T05:33:33.025Z,58.80
2023-10-05T05:38:36.656Z,60.70
2023-10-05T05:43:41.879Z,59.80
2023-10-05T05:48:50.412Z,60.10
2023-10-05T05:53:54.244Z,61.80
2023-10-05T05:58:57.732Z,62.50
2023-10-05T06:04:02.568Z,62.60
2023-10-05T06:09:08.820Z,60.60
2023-10-05T06:14:12.930Z,59.30
2023-10-05T06:19:18.139Z,58.50
2023-10-05T06:24:21.592Z,58.00
2023-10-05T06:29:26.273Z,58.30
2023-10-05T06:34:31.220Z,58.10
2023-10-05T06:39:34.742Z,59.10
2023-10-05T06:44:38.234Z,59.20
2023-10-05T06:49:43.755Z,59.30
2023-10-05T06:54:47.114Z,59.60
2023-10-05T06:59:50.687Z,59.70
2023-10-05T07:04:55.723Z,59.70
2023-10-05T07:09:59.300Z,59.10
2023-10-05T07:15:03.475Z,59.50
2023-10-05T07:20:12.798Z,59.50
2023-10-05T07:25:18.627Z,58.90
2023-10-05T07:30:22.356Z,59.00
2023-10-05T07:35:27.137Z,58.60
2023-10-05T07:40:30.805Z,59.00
2023-10-05T07:45:34.585Z,59.30
2023-10-05T07:50:39.582Z,59.40
2023-10-05T07:55:43.070Z,59.50
2023-10-05T08:00:47.163Z,59.60
2023-10-05T08:05:52.183Z,59.00
2023-10-05T08:10:55.959Z,59.00
2023-10-05T08:15:59.521Z,58.80
2023-10-05T08:21:05.634Z,59.20
2023-10-05T08:26:15.696Z,59.30
2023-10-05T08:31:24.451Z,59.30
2023-10-05T08:36:29.593Z,59.50
2023-10-05T08:41:36.612Z,59.40
2023-10-05T08:46:43.588Z,59.40
2023-10-05T08:52:02.105Z,59.00
2023-10-05T08:57:11.762Z,58.80
2023-10-05T09:02:20.296Z,58.50
2023-10-05T09:07:37.363Z,58.70
2023-10-05T09:12:43.252Z,58.70
2023-10-05T09:18:18.486Z,58.80
2023-10-05T09:23:33.512Z,58.50
2023-10-05T09:28:46.670Z,57.70
2023-10-05T09:33:54.666Z,58.00
2023-10-05T09:39:04.570Z,58.10
2023-10-05T09:44:10.936Z,56.80
2023-10-05T09:49:18.897Z,57.50
2023-10-05T09:54:28.354Z,57.00
2023-10-05T09:59:34.217Z,56.80
2023-10-05T10:04:38.970Z,56.70
2023-10-05T10:09:47.948Z,56.50
2023-10-05T10:14:52.795Z,55.70
2023-10-05T10:20:17.497Z,55.70
2023-10-05T10:25:32.820Z,55.50
2023-10-05T10:30:37.653Z,54.30
2023-10-05T10:35:44.178Z,55.10
2023-10-05T10:41:08.470Z,54.80
2023-10-05T10:46:22.045Z,53.50
2023-10-05T10:51:28.904Z,53.40
2023-10-05T10:56:43.121Z,53.90
2023-10-05T11:01:54.341Z,53.10
2023-10-05T11:07:06.828Z,53.30
2023-10-05T11:12:12.993Z,53.10
2023-10-05T11:17:36.768Z,52.90
2023-10-05T11:22:43.838Z,51.70
2023-10-05T11:27:56.591Z,52.40
2023-10-05T11:33:26.610Z,51.90
2023-10-05T11:38:29.843Z,52.10
2023-10-05T11:43:38.670Z,51.40
2023-10-05T11:48:49.446Z,51.10
2023-10-05T11:53:56.644Z,50.40
2023-10-05T11:59:02.170Z,50.70
2023-10-05T12:04:08.589Z,50.00
2023-10-05T12:09:28.436Z,49.80
2023-10-05T12:14:34.645Z,49.50
2023-10-05T12:19:39.358Z,49.30
2023-10-05T12:24:43.232Z,49.80
2023-10-05T12:29:48.153Z,49.70
2023-10-05T12:34:52.673Z,49.60
2023-10-05T12:39:56.070Z,49.50
2023-10-05T12:45:05.755Z,49.30
2023-10-05T12:50:09.756Z,49.10
2023-10-05T12:55:13.245Z,49.20
2023-10-05T13:00:23.208Z,49.10
2023-10-05T13:05:33.575Z,48.80
2023-10-05T13:10:39.100Z,49.00
2023-10-05T13:15:44.246Z,49.10
2023-10-05T13:20:49.594Z,48.80
2023-10-05T13:25:54.503Z,49.00
2023-10-05T13:31:00.774Z,48.70
2023-10-05T13:36:08.967Z,48.70
2023-10-05T13:41:20.250Z,49.30
2023-10-05T13:46:36.906Z,49.50
2023-10-05T13:51:40.811Z,49.30
2023-10-05T13:56:44.895Z,49.30
2023-10-05T14:01:54.583Z,49.50
2023-10-05T14:07:00.380Z,49.30
2023-10-05T14:12:04.665Z,49.60
2023-10-05T14:17:09.410Z,49.40
2023-10-05T14:22:14.320Z,49.40
2023-10-05T14:27:17.684Z,49.60
2023-10-05T14:32:24.958Z,49.90
2023-10-05T14:37:28.376Z,50.10
2023-10-05T14:42:32.407Z,50.80
2023-10-05T14:47:37.306Z,51.30
2023-10-05T14:52:43.993Z,51.50
2023-10-05T14:57:47.790Z,51.70
2023-10-05T15:02:54.352Z,51.40
2023-10-05T15:08:00.054Z,50.70
2023-10-05T15:13:03.542Z,50.30
2023-10-05T15:18:10.648Z,50.40
2023-10-05T15:23:14.018Z,50.30
2023-10-05T15:28:20.296Z,50.10
2023-10-05T15:33:28.258Z,50.40
2023-10-05T15:38:35.201Z,50.60
2023-10-05T15:43:38.959Z,50.80
2023-10-05T15:48:43.957Z,50.90
2023-10-05T15:53:53.218Z,51.30
2023-10-05T15:58:56.827Z,51.40
2023-10-05T16:04:05.181Z,51.20
2023-10-05T16:09:09.052Z,51.00
2023-10-05T16:14:12.592Z,51.20
2023-10-05T16:19:17.567Z,51.40
2023-10-05T16:24:21.253Z,51.40
2023-10-05T16:29:24.646Z,51.70
2023-10-05T16:34:30.283Z,51.90
2023-10-05T16:39:33.845Z,51.60
2023-10-05T16:44:37.447Z,51.40
2023-10-05T16:49:44.149Z,51.90
2023-10-05T16:54:49.059Z,52.40
2023-10-05T16:59:55.331Z,52.40
2023-10-05T17:05:07.552Z,52.50
2023-10-05T17:10:12.057Z,52.70
2023-10-05T17:15:18.044Z,52.30
2023-10-05T17:20:25.113Z,52.50
2023-10-05T17:25:30.412Z,52.70
2023-10-05T17:30:34.490Z,52.60
2023-10-05T17:35:44.626Z,52.80
2023-10-05T17:40:57.049Z,52.80
2023-10-05T17:46:02.740Z,52.80
2023-10-05T17:51:09.133Z,52.50
2023-10-05T17:56:14.559Z,52.50
2023-10-05T18:01:20.812Z,52.60
2023-10-05T18:06:27.475Z,52.80
2023-10-05T18:11:31.940Z,52.70
2023-10-05T18:16:38.799Z,52.90
2023-10-05T18:21:46.139Z,53.50
2023-10-05T18:26:52.914Z,53.30
2023-10-05T18:31:57.598Z,52.90
2023-10-05T18:37:05.051Z,52.90
2023-10-05T18:42:10.112Z,53.20
2023-10-05T18:47:15.984Z,53.20
2023-10-05T18:52:24.700Z,53.20
2023-10-05T18:57:31.683Z,53.00
2023-10-05T19:02:37.583Z,53.00
2023-10-05T19:07:47.273Z,53.00
2023-10-05T19:12:53.526Z,53.00
2023-10-05T19:18:00.277Z,53.80
2023-10-05T19:23:07.944Z,53.30
2023-10-05T19:28:13.697Z,53.10
2023-10-05T19:33:21.703Z,53.50
2023-10-05T19:38:29.016Z,54.00
2023-10-05T19:43:34.046Z,53.30
2023-10-05T19:48:38.465Z,53.10
2023-10-05T19:53:46.088Z,53.00
2023-10-05T19:58:50.187Z,52.90
2023-10-05T20:03:54.584Z,52.80
2023-10-05T20:09:01.364Z,52.80
2023-10-05T20:14:10.254Z,52.90
2023-10-05T20:19:16.830Z,53.50
2023-10-05T20:24:26.293Z,53.40
2023-10-05T20:29:31.777Z,53.30
2023-10-05T20:34:35.549Z,53.30
2023-10-05T20:39:40.492Z,53.40
2023-10-05T20:44:43.972Z,53.40
2023-10-05T20:49:47.420Z,53.30
2023-10-05T20:54:54.067Z,53.80
2023-10-05T20:59:57.587Z,54.20
2023-10-05T21:05:01.359Z,53.70
2023-10-05T21:10:07.451Z,54.10
2023-10-05T21:15:12.928Z,53.20
2023-10-05T21:20:16.465Z,53.00
2023-10-05T21:25:21.353Z,53.00
2023-10-05T21:30:24.718Z,52.80
2023-10-05T21:35:28.195Z,53.70
2023-10-05T21:40:33.466Z,53.80
2023-10-05T21:45:36.940Z,52.90
2023-10-05T21:50:40.273Z,52.90
2023-10-05T21:55:45.457Z,53.00
2023-10-05T22:00:54.557Z,53.20
2023-10-05T22:05:58.086Z,52.90
2023-10-05T22:11:04.568Z,52.90
2023-10-05T22:16:08.042Z,52.80
2023-10-05T22:21:11.617Z,52.80
2023-10-05T22:26:17.625Z,52.90
2023-10-05T22:31:21.143Z,53.80
2023-10-05T22:36:24.626Z,53.50
2023-10-05T22:41:29.408Z,53.80
2023-10-05T22:46:32.841Z,54.00
2023-10-05T22:51:36.248Z,54.10
2023-10-05T22:56:44.690Z,54.00
2023-10-05T23:01:48.843Z,53.80
2023-10-05T23:06:52.476Z,54.00
2023-10-05T23:11:57.360Z,53.80
2023-10-05T23:17:00.762Z,54.00
2023-10-05T23:22:05.445Z,53.80
2023-10-05T23:27:13.572Z,53.70
2023-10-05T23:32:17.379Z,54.00
2023-10-05T23:37:22.197Z,53.90
2023-10-05T23:42:32.061Z,53.90
2023-10-05T23:47:37.736Z,53.90
2023-10-05T23:52:41.432Z,54.00
2023-10-05T23:57:46.536Z,54.10
